Kimberling City, Missouri
Current Conditions -  °F | °C
As of 12:35 PM on Saturday 25 Oct 2014 (Local Time) from KFWB Reporting Station
Clear Clear  
Wind Chill: 77°   Ceiling: Unl
Heat Index: 79°   Visibility: 10mi
Dew Point: 63°   Wind: 5mph
Humidity: 61%   Direction: 210°SSW
Pressure: 30.09"   Gusts: NA
Location:  36.63°N, 93.42°W
Report Text: KFWB 251735Z AUTO 21004KT 10SM CLR 25/17 A3009 RMK AO2
Loading
Personal Weather Stations






























Interactive Weather Map New forecast layout! Learn more

10-Day Weather Forecast

Advertisements
Track Severe Weather on mobile